Time;durP1;ratioP1;P1;durP2;ratioP2;P2;SDS_P1;SDS_P2;PMS_P1;PMS_P2;Temp;Humidity;BMP_temperature;BMP_pressure;BME280_temperature;BME280_humidity;BME280_pressure;Samples;Min_cycle;Max_cycle;Signal;HPM_P1;HPM_P2
2022/11/01 00:01:41;;;;;;;;;;;;;;;12.45;100.00;100832.44;5030296;28;19924;-77
2022/11/01 00:04:07;;;;;;;;;;;;;;;12.45;100.00;100821.81;5045106;28;19978;-77
2022/11/01 00:06:33;;;;;;;;;;;;;;;12.47;100.00;100825.25;5030319;28;19972;-77
2022/11/01 00:08:59;;;;;;;;;;;;;;;12.47;100.00;100826.09;5030593;28;19931;-77
2022/11/01 00:11:24;;;;;;;;;;;;;;;12.47;100.00;100819.94;5044936;28;19932;-77
2022/11/01 00:13:50;;;;;;;;;;;;;;;12.49;100.00;100823.38;5045453;28;19936;-77
2022/11/01 00:16:16;;;;;;;;;;;;;;;12.49;100.00;100810.94;5029964;28;19938;-77
2022/11/01 00:18:41;;;;;;;;;;;;;;;12.50;100.00;100810.00;5031295;28;21678;-77
2022/11/01 00:21:07;;;;;;;;;;;;;;;12.50;100.00;100815.31;5015891;28;20307;-77
2022/11/01 00:23:35;;;;;;;;;;;;;;;12.50;100.00;100803.84;5045076;28;19936;-76
2022/11/01 00:26:01;;;;;;;;;;;;;;;12.50;100.00;100809.16;5044744;28;19933;-77
2022/11/01 00:28:27;;;;;;;;;;;;;;;12.51;100.00;100802.91;5013080;28;19947;-77
2022/11/01 00:30:53;;;;;;;;;;;;;;;12.51;100.00;100800.25;5045572;28;19977;-77
2022/11/01 00:33:18;;;;;;;;;;;;;;;12.50;100.00;100791.41;5044632;28;19928;-77
2022/11/01 00:35:45;;;;;;;;;;;;;;;12.52;100.00;100782.53;5029253;28;19935;-77
2022/11/01 00:38:11;;;;;;;;;;;;;;;12.53;100.00;100782.44;5045040;28;19933;-77
2022/11/01 00:40:36;;;;;;;;;;;;;;;12.55;100.00;100772.59;5044746;28;19933;-77
2022/11/01 00:43:02;;;;;;;;;;;;;;;12.57;100.00;100770.72;5034989;28;19998;-76
2022/11/01 00:45:27;;;;;;;;;;;;;;;12.59;100.00;100766.16;5045211;28;20322;-77
2022/11/01 00:47:52;;;;;;;;;;;;;;;12.62;100.00;100765.13;5025912;28;20391;-76
2022/11/01 00:50:18;;;;;;;;;;;;;;;12.66;100.00;100769.34;5044970;28;20018;-77
2022/11/01 00:52:43;;;;;;;;;;;;;;;12.68;100.00;100758.66;5044923;28;19997;-77
2022/11/01 00:55:09;;;;;;;;;;;;;;;12.71;100.00;100753.16;5044523;28;20373;-77
2022/11/01 00:57:34;;;;;;;;;;;;;;;12.71;100.00;100769.97;5044620;28;19947;-77
2022/11/01 00:59:59;;;;;;;;;;;;;;;12.75;100.00;100766.16;5029308;28;20478;-77
2022/11/01 01:02:25;;;;;;;;;;;;;;;12.78;100.00;100770.44;5044874;28;19933;-77
2022/11/01 01:04:50;;;;;;;;;;;;;;;12.82;100.00;100772.00;5030873;28;19928;-76
2022/11/01 01:07:16;;;;;;;;;;;;;;;12.84;100.00;100772.78;5044759;28;19939;-77
2022/11/01 01:09:41;;;;;;;;;;;;;;;12.85;100.00;100770.97;5044673;28;20642;-77
2022/11/01 01:12:08;;;;;;;;;;;;;;;12.82;100.00;100761.38;5034843;28;20215;-77
2022/11/01 01:14:33;;;;;;;;;;;;;;;12.78;100.00;100759.81;5030989;28;19929;-77
2022/11/01 01:16:58;;;;;;;;;;;;;;;12.74;100.00;100750.31;5028620;28;19936;-77
2022/11/01 01:19:24;;;;;;;;;;;;;;;12.70;100.00;100741.66;5043803;28;19929;-76
2022/11/01 01:21:49;;;;;;;;;;;;;;;12.66;100.00;100744.56;5044457;28;20542;-76
2022/11/01 01:24:15;;;;;;;;;;;;;;;12.62;100.00;100736.78;5044207;28;19929;-77
2022/11/01 01:26:41;;;;;;;;;;;;;;;12.60;100.00;100729.84;5028676;28;19926;-76
2022/11/01 01:29:06;;;;;;;;;;;;;;;12.56;100.00;100721.19;5017030;28;20295;-76
2022/11/01 01:31:32;;;;;;;;;;;;;;;12.54;100.00;100715.13;5044622;28;19952;-76
2022/11/01 01:33:57;;;;;;;;;;;;;;;12.53;100.00;100700.09;5028200;28;19929;-76
2022/11/01 01:36:23;;;;;;;;;;;;;;;12.53;100.00;100702.75;5043549;28;20287;-77
2022/11/01 01:38:54;;;;;;;;;;;;;;;12.54;100.00;100701.84;5043601;28;19964;-76
2022/11/01 01:44:22;;;;;;;;;;;;;;;12.56;100.00;100688.47;5044236;28;19932;-76
2022/11/01 01:46:50;;;;;;;;;;;;;;;12.57;100.00;100688.38;5024154;28;19924;-77
2022/11/01 01:49:16;;;;;;;;;;;;;;;12.57;100.00;100675.09;5043622;28;20345;-76
2022/11/01 01:51:41;;;;;;;;;;;;;;;12.60;100.00;100680.22;5044211;28;20023;-77
2022/11/01 01:54:06;;;;;;;;;;;;;;;12.62;100.00;100669.53;5041507;28;20039;-76
2022/11/01 01:56:33;;;;;;;;;;;;;;;12.62;100.00;100666.88;5027974;28;20046;-77
2022/11/01 01:59:05;;;;;;;;;;;;;;;12.63;100.00;100671.22;5043358;28;19936;-76
2022/11/01 02:01:31;;;;;;;;;;;;;;;12.66;100.00;100665.75;5043963;28;19948;-77
2022/11/01 02:03:56;;;;;;;;;;;;;;;12.69;100.00;100662.06;5043247;28;19931;-77
2022/11/01 02:06:23;;;;;;;;;;;;;;;12.70;100.00;100661.97;5043577;28;20026;-76
2022/11/01 02:08:49;;;;;;;;;;;;;;;12.72;100.00;100659.22;5033393;28;19924;-77
2022/11/01 02:11:15;;;;;;;;;;;;;;;12.73;100.00;100660.94;5028031;28;19952;-77
2022/11/01 02:13:40;;;;;;;;;;;;;;;12.77;100.00;100667.81;5027873;28;21514;-77
2022/11/01 02:16:13;;;;;;;;;;;;;;;12.80;100.00;100656.16;5043686;28;19932;-77
2022/11/01 02:18:44;;;;;;;;;;;;;;;12.80;100.00;100656.97;5042969;28;20019;-77
2022/11/01 02:21:28;;;;;;;;;;;;;;;12.80;100.00;100642.88;5042801;28;19982;-77
2022/11/01 02:24:13;;;;;;;;;;;;;;;12.79;100.00;100647.31;5043569;28;20889;-77
2022/11/01 02:26:41;;;;;;;;;;;;;;;12.77;100.00;100636.75;5042874;28;19975;-77
2022/11/01 02:29:25;;;;;;;;;;;;;;;12.76;100.00;100645.69;5057923;28;19925;-77
2022/11/01 02:31:54;;;;;;;;;;;;;;;12.76;100.00;100639.53;5042819;28;19928;-77
2022/11/01 02:34:30;;;;;;;;;;;;;;;12.74;100.00;100644.06;5022398;28;19951;-77
2022/11/01 02:37:08;;;;;;;;;;;;;;;12.75;100.00;100638.66;5040674;28;19933;-77
2022/11/01 02:39:33;;;;;;;;;;;;;;;12.78;100.00;100640.28;5042680;28;19928;-76
2022/11/01 02:42:18;;;;;;;;;;;;;;;12.80;100.00;100624.28;5042963;28;19960;-77
2022/11/01 02:44:45;;;;;;;;;;;;;;;12.82;100.00;100631.22;5027293;28;20031;-77
2022/11/01 02:47:11;;;;;;;;;;;;;;;12.82;100.00;100633.88;5016824;28;20062;-77
2022/11/01 02:49:40;;;;;;;;;;;;;;;12.81;100.00;100629.47;5042949;28;19932;-77
2022/11/01 02:52:06;;;;;;;;;;;;;;;12.80;100.00;100619.78;5027626;28;19925;-76
2022/11/01 02:54:32;;;;;;;;;;;;;;;12.82;100.00;100617.94;5023130;28;19928;-76
2022/11/01 02:57:14;;;;;;;;;;;;;;;12.83;100.00;100624.06;5029975;28;20488;-77
2022/11/01 02:59:41;;;;;;;;;;;;;;;12.83;100.00;100613.44;5028371;28;19925;-77
2022/11/01 03:02:09;;;;;;;;;;;;;;;12.84;100.00;100621.34;5042023;28;20764;-77
2022/11/01 03:04:34;;;;;;;;;;;;;;;12.86;100.00;100603.50;5023924;28;19963;-77
2022/11/01 03:07:01;;;;;;;;;;;;;;;12.90;100.00;100606.81;5040444;28;19932;-77
2022/11/01 03:09:26;;;;;;;;;;;;;;;12.93;100.00;100608.44;5039516;28;19928;-77
2022/11/01 03:11:58;;;;;;;;;;;;;;;12.95;100.00;100607.41;5029566;28;19933;-77
2022/11/01 03:14:31;;;;;;;;;;;;;;;12.99;100.00;100600.13;5016327;28;20285;-77
2022/11/01 03:17:15;;;;;;;;;;;;;;;13.06;100.00;100603.28;5026907;28;19955;-77
2022/11/01 03:19:45;;;;;;;;;;;;;;;13.10;100.00;100605.66;5026652;28;21523;-77
2022/11/01 03:22:15;;;;;;;;;;;;;;;13.13;100.00;100601.97;5042901;28;19984;-77
2022/11/01 03:24:46;;;;;;;;;;;;;;;13.13;100.00;100604.63;5006256;28;19925;-77
2022/11/01 03:27:20;;;;;;;;;;;;;;;13.14;100.00;100598.34;5042194;28;19930;-77
2022/11/01 03:29:48;;;;;;;;;;;;;;;13.14;100.00;100599.19;5040335;28;19932;-77
2022/11/01 03:32:14;;;;;;;;;;;;;;;13.13;100.00;100605.47;5024511;28;19984;-77
2022/11/01 03:34:39;;;;;;;;;;;;;;;13.11;100.00;100594.06;5039698;28;20069;-77
2022/11/01 03:37:06;;;;;;;;;;;;;;;13.12;100.00;100592.25;5009279;28;20031;-77
2022/11/01 03:39:32;;;;;;;;;;;;;;;13.13;100.00;100596.66;5026307;28;20303;-76
2022/11/01 03:42:00;;;;;;;;;;;;;;;13.14;100.00;100585.91;5025616;28;19959;-77
2022/11/01 03:44:25;;;;;;;;;;;;;;;13.18;100.00;100600.72;5042753;28;19928;-77
2022/11/01 03:46:51;;;;;;;;;;;;;;;13.21;100.00;100589.06;5028380;28;19943;-77
2022/11/01 03:49:17;;;;;;;;;;;;;;;13.26;100.00;100594.09;5011794;28;20141;-77
2022/11/01 03:51:42;;;;;;;;;;;;;;;13.29;100.00;100600.06;5028678;28;19928;-77
2022/11/01 03:54:09;;;;;;;;;;;;;;;13.33;100.00;100605.22;5022895;28;19935;-77
2022/11/01 03:56:36;;;;;;;;;;;;;;;13.35;100.00;100609.47;5042482;28;20192;-77
2022/11/01 03:59:01;;;;;;;;;;;;;;;13.38;100.00;100608.44;5021804;28;21018;-77
2022/11/01 04:01:27;;;;;;;;;;;;;;;13.43;100.00;100614.34;5026708;28;19936;-77
2022/11/01 04:03:52;;;;;;;;;;;;;;;13.46;100.00;100610.66;5023098;28;19933;-77
2022/11/01 04:06:18;;;;;;;;;;;;;;;13.49;100.00;100616.66;5028565;28;19951;-76
2022/11/01 04:08:43;;;;;;;;;;;;;;;13.51;100.00;100613.91;5041280;28;19933;-76
2022/11/01 04:11:08;;;;;;;;;;;;;;;13.52;100.00;100623.59;5044341;28;19933;-76
2022/11/01 04:13:34;;;;;;;;;;;;;;;13.54;100.00;100624.34;5045726;28;19933;-77
2022/11/01 04:21:32;;;;;;;;;;;;;;;13.55;100.00;100636.69;5013375;28;19924;-77
2022/11/01 04:23:57;;;;;;;;;;;;;;;13.55;100.00;100629.56;5043082;28;19939;-77
2022/11/01 04:26:23;;;;;;;;;;;;;;;13.57;100.00;100635.63;5026403;28;19932;-77
2022/11/01 04:28:57;;;;;;;;;;;;;;;13.59;100.00;100638.22;5043574;28;20595;-76
2022/11/01 04:31:27;;;;;;;;;;;;;;;13.61;100.00;100641.63;5035272;28;19924;-76
2022/11/01 04:33:54;;;;;;;;;;;;;;;13.62;100.00;100640.66;5045242;28;19947;-77
2022/11/01 04:36:19;;;;;;;;;;;;;;;13.61;100.00;100652.25;5011927;28;19925;-76
2022/11/01 04:38:47;;;;;;;;;;;;;;;13.62;100.00;100653.13;5045652;28;19932;-76
2022/11/01 04:41:12;;;;;;;;;;;;;;;13.62;100.00;100664.63;5059461;28;19929;-76
2022/11/01 04:43:38;;;;;;;;;;;;;;;13.62;100.00;100661.94;5028808;28;20312;-76
2022/11/01 04:46:03;;;;;;;;;;;;;;;13.64;100.00;100670.72;5045135;28;19928;-77
2022/11/01 04:48:29;;;;;;;;;;;;;;;13.66;100.00;100665.28;5042143;28;19932;-76
2022/11/01 04:50:54;;;;;;;;;;;;;;;13.68;100.00;100674.88;5024779;28;20454;-77
2022/11/01 04:53:20;;;;;;;;;;;;;;;13.68;100.00;100669.56;5044577;28;19935;-76
2022/11/01 04:55:45;;;;;;;;;;;;;;;13.68;100.00;100674.03;5035060;28;19925;-76
2022/11/01 04:58:11;;;;;;;;;;;;;;;13.64;100.00;100677.81;5059207;28;19960;-76
2022/11/01 05:00:37;;;;;;;;;;;;;;;13.58;100.00;100671.09;5044507;28;20410;-77
2022/11/01 05:03:03;;;;;;;;;;;;;;;13.52;100.00;100674.94;5042140;28;20373;-76
2022/11/01 05:05:29;;;;;;;;;;;;;;;13.46;100.00;100682.47;5026921;28;19929;-76
2022/11/01 05:08:04;;;;;;;;;;;;;;;13.40;100.00;100679.19;5028675;28;20024;-76
2022/11/01 05:10:30;;;;;;;;;;;;;;;13.37;100.00;100670.53;4998480;28;20311;-75
2022/11/01 05:12:55;;;;;;;;;;;;;;;13.33;100.00;100684.97;5044925;28;19932;-77
2022/11/01 05:15:21;;;;;;;;;;;;;;;13.27;100.00;100680.88;5044001;28;19928;-76
2022/11/01 05:17:46;;;;;;;;;;;;;;;13.20;100.00;100690.16;5028811;28;19955;-77
2022/11/01 05:20:12;;;;;;;;;;;;;;;13.13;100.00;100690.50;5029221;28;20016;-76
2022/11/01 05:22:37;;;;;;;;;;;;;;;13.09;100.00;100689.00;5028279;28;19986;-77
2022/11/01 05:25:02;;;;;;;;;;;;;;;13.03;100.00;100692.00;5034498;28;19924;-76
2022/11/01 05:27:28;;;;;;;;;;;;;;;12.97;100.00;100689.72;5045006;28;19935;-77
2022/11/01 05:29:53;;;;;;;;;;;;;;;12.93;100.00;100698.78;5028759;28;19932;-77
2022/11/01 05:32:19;;;;;;;;;;;;;;;12.88;100.00;100694.63;5044484;28;19950;-76
2022/11/01 05:34:45;;;;;;;;;;;;;;;12.83;100.00;100699.34;5028424;28;19932;-76
2022/11/01 05:37:11;;;;;;;;;;;;;;;12.80;100.00;100699.50;5043954;28;19931;-76
2022/11/01 05:39:36;;;;;;;;;;;;;;;12.79;100.00;100687.16;5039938;28;19932;-76
2022/11/01 05:42:01;;;;;;;;;;;;;;;12.80;100.00;100696.00;5044060;28;19936;-76
2022/11/01 05:44:27;;;;;;;;;;;;;;;12.79;100.00;100707.56;5043669;28;19962;-76
2022/11/01 05:46:52;;;;;;;;;;;;;;;12.75;100.00;100707.72;5041360;28;19924;-76
2022/11/01 05:49:18;;;;;;;;;;;;;;;12.73;100.00;100711.41;5020352;28;19991;-76
2022/11/01 05:51:43;;;;;;;;;;;;;;;12.72;100.00;100713.22;5026001;28;19929;-77
2022/11/01 05:54:09;;;;;;;;;;;;;;;12.72;100.00;100704.38;5038895;28;19932;-77
2022/11/01 05:56:34;;;;;;;;;;;;;;;12.67;100.00;100712.63;5023789;28;21611;-76
2022/11/01 05:58:59;;;;;;;;;;;;;;;12.66;100.00;100702.94;5023488;28;21487;-75
2022/11/01 06:01:25;;;;;;;;;;;;;;;12.68;100.00;100721.47;5024035;28;19936;-76
2022/11/01 06:03:50;;;;;;;;;;;;;;;12.65;100.00;100724.28;5025908;28;20010;-76
2022/11/01 06:06:16;;;;;;;;;;;;;;;12.60;100.00;100730.69;5023397;28;19937;-76
2022/11/01 06:08:41;;;;;;;;;;;;;;;12.53;100.00;100729.31;5021608;28;20006;-76
2022/11/01 06:11:07;;;;;;;;;;;;;;;12.47;100.00;100727.00;5023270;28;19933;-76
2022/11/01 06:13:32;;;;;;;;;;;;;;;12.42;100.00;100743.19;5023865;28;19936;-76
2022/11/01 06:15:59;;;;;;;;;;;;;;;12.38;100.00;100725.72;5025292;28;19929;-75
2022/11/01 06:18:24;;;;;;;;;;;;;;;12.38;100.00;100732.81;5027423;28;19948;-75
2022/11/01 06:20:50;;;;;;;;;;;;;;;12.35;100.00;100731.19;5028273;28;19925;-76
2022/11/01 06:23:15;;;;;;;;;;;;;;;12.33;100.00;100749.84;5054807;28;19936;-76
2022/11/01 06:25:40;;;;;;;;;;;;;;;12.29;100.00;100740.34;5023618;28;19929;-76
2022/11/01 06:28:06;;;;;;;;;;;;;;;12.31;100.00;100740.28;5023919;28;19933;-76
2022/11/01 06:30:31;;;;;;;;;;;;;;;12.31;100.00;100733.16;5015174;28;19948;-75
2022/11/01 06:33:00;;;;;;;;;;;;;;;12.30;100.00;100736.75;5024905;28;20411;-76
2022/11/01 06:35:26;;;;;;;;;;;;;;;12.33;100.00;100733.09;5027403;28;20555;-76
2022/11/01 06:37:52;;;;;;;;;;;;;;;12.33;100.00;100733.91;5022892;28;19929;-76
2022/11/01 06:40:18;;;;;;;;;;;;;;;12.35;100.00;100736.50;5025390;28;20015;-76
2022/11/01 06:42:43;;;;;;;;;;;;;;;12.32;100.00;100736.69;5023360;28;20429;-75
2022/11/01 06:45:09;;;;;;;;;;;;;;;12.32;100.00;100758.75;5008225;28;20267;-76
2022/11/01 06:47:36;;;;;;;;;;;;;;;12.32;100.00;100757.91;5023108;28;19925;-76
2022/11/01 06:50:02;;;;;;;;;;;;;;;12.33;100.00;100749.00;5034431;28;20085;-76
2022/11/01 06:52:28;;;;;;;;;;;;;;;12.30;100.00;100758.00;5043163;28;20422;-76
2022/11/01 06:54:53;;;;;;;;;;;;;;;12.29;100.00;100760.72;5027117;28;19925;-76
2022/11/01 06:57:18;;;;;;;;;;;;;;;12.29;100.00;100766.91;5027458;28;19929;-75
2022/11/01 06:59:44;;;;;;;;;;;;;;;12.32;100.00;100750.78;5026670;28;19947;-76
2022/11/01 07:02:09;;;;;;;;;;;;;;;12.34;100.00;100764.88;5042819;28;19932;-76
2022/11/01 07:04:35;;;;;;;;;;;;;;;12.35;100.00;100771.00;5042871;28;19929;-75
2022/11/01 07:07:01;;;;;;;;;;;;;;;12.34;100.00;100766.66;5042173;28;19925;-76
2022/11/01 07:09:26;;;;;;;;;;;;;;;12.33;100.00;100759.63;5039742;28;19924;-76
2022/11/01 07:11:52;;;;;;;;;;;;;;;12.32;100.00;100782.66;5042328;28;21406;-76
2022/11/01 07:14:17;;;;;;;;;;;;;;;12.31;100.00;100778.28;5027046;28;19928;-76
2022/11/01 07:16:43;;;;;;;;;;;;;;;12.32;100.00;100784.47;5056233;28;22180;-76
2022/11/01 07:19:08;;;;;;;;;;;;;;;12.31;100.00;100782.75;5042666;28;20031;-76
2022/11/01 07:21:37;;;;;;;;;;;;;;;12.33;100.00;100789.66;5041650;28;20020;-75
2022/11/01 07:24:02;;;;;;;;;;;;;;;12.36;100.00;100792.19;5048943;28;19935;-75
2022/11/01 07:26:28;;;;;;;;;;;;;;;12.38;100.00;100785.91;5042117;28;19928;-76
2022/11/01 07:28:53;;;;;;;;;;;;;;;12.41;100.00;100799.03;5056090;28;19962;-76
2022/11/01 07:31:19;;;;;;;;;;;;;;;12.45;100.00;100805.88;5041769;28;19960;-77
2022/11/01 07:33:44;;;;;;;;;;;;;;;12.48;100.00;100800.44;5024692;28;20354;-75
2022/11/01 07:36:10;;;;;;;;;;;;;;;12.50;100.00;100809.16;5041587;28;20315;-76
2022/11/01 07:38:37;;;;;;;;;;;;;;;12.53;100.00;100808.13;5039163;28;19936;-76
2022/11/01 07:41:03;;;;;;;;;;;;;;;12.52;100.00;100809.09;5027208;28;19933;-75
2022/11/01 07:43:28;;;;;;;;;;;;;;;12.55;100.00;100819.53;5025544;28;19925;-76
2022/11/01 07:45:56;;;;;;;;;;;;;;;12.57;100.00;100812.31;5024590;28;19967;-76
2022/11/01 07:48:22;;;;;;;;;;;;;;;12.59;100.00;100813.97;5046774;28;20051;-76
2022/11/01 07:50:48;;;;;;;;;;;;;;;12.59;100.00;100811.31;5018563;28;19929;-74
2022/11/01 07:53:17;;;;;;;;;;;;;;;12.63;100.00;100835.91;5009083;28;20372;-75
2022/11/01 07:55:43;;;;;;;;;;;;;;;12.66;100.00;100824.25;4995312;28;19921;-76
2022/11/01 07:58:12;;;;;;;;;;;;;;;12.65;100.00;100839.34;5023642;28;21857;-76
2022/11/01 08:00:37;;;;;;;;;;;;;;;12.65;100.00;100834.03;5011517;28;20020;-75
2022/11/01 08:03:11;;;;;;;;;;;;;;;12.65;100.00;100838.47;5011679;28;19940;-76
2022/11/01 08:05:36;;;;;;;;;;;;;;;12.67;100.00;100836.59;5007897;28;19929;-78
2022/11/01 08:08:02;;;;;;;;;;;;;;;12.65;100.00;100839.34;5013087;28;20541;-75
2022/11/01 08:10:28;;;;;;;;;;;;;;;12.67;100.00;100863.16;5006442;28;19925;-74
2022/11/01 08:13:00;;;;;;;;;;;;;;;12.69;100.00;100875.41;5006709;28;20335;-76
2022/11/01 08:15:25;;;;;;;;;;;;;;;12.68;100.00;100868.38;5008835;28;19933;-75
2022/11/01 08:17:53;;;;;;;;;;;;;;;12.68;100.00;100872.84;5008969;28;20375;-75
2022/11/01 08:20:18;;;;;;;;;;;;;;;12.65;100.00;100876.53;5007631;28;21748;-76
2022/11/01 08:22:44;;;;;;;;;;;;;;;12.68;100.00;100891.44;5013184;28;19948;-75
2022/11/01 08:25:09;;;;;;;;;;;;;;;12.67;100.00;100900.34;5010914;28;19986;-76
2022/11/01 08:27:35;;;;;;;;;;;;;;;12.70;100.00;100894.88;5007877;28;19933;-76
2022/11/01 08:30:00;;;;;;;;;;;;;;;12.69;100.00;100879.88;5008444;28;20573;-75
2022/11/01 08:32:25;;;;;;;;;;;;;;;12.68;100.00;100894.09;5008885;28;20326;-74
2022/11/01 08:34:51;;;;;;;;;;;;;;;12.66;100.00;100910.13;5007471;28;20565;-75
2022/11/01 08:37:17;;;;;;;;;;;;;;;12.63;100.00;100899.63;5008177;28;20304;-75
2022/11/01 08:39:43;;;;;;;;;;;;;;;12.62;100.00;100897.94;5008760;28;20014;-75
2022/11/01 08:42:08;;;;;;;;;;;;;;;12.61;100.00;100902.41;5007529;28;19933;-75
2022/11/01 08:44:33;;;;;;;;;;;;;;;12.66;100.00;100922.53;5008098;28;20072;-75
2022/11/01 08:47:00;;;;;;;;;;;;;;;12.70;100.00;100921.44;5008013;28;19930;-76
2022/11/01 08:49:26;;;;;;;;;;;;;;;12.74;100.00;100915.00;4979310;28;19925;-74
2022/11/01 08:51:51;;;;;;;;;;;;;;;12.81;100.00;100921.69;5023977;28;19936;-76
2022/11/01 08:54:17;;;;;;;;;;;;;;;12.87;100.00;100933.81;5024010;28;21441;-76
2022/11/01 08:56:42;;;;;;;;;;;;;;;12.90;100.00;100933.63;5003259;28;20020;-76
2022/11/01 08:59:07;;;;;;;;;;;;;;;12.93;100.00;100924.63;5020350;28;19979;-75
2022/11/01 09:01:33;;;;;;;;;;;;;;;12.97;100.00;100939.50;5004565;28;20023;-76
2022/11/01 09:04:00;;;;;;;;;;;;;;;12.97;100.00;100942.16;5020075;28;19924;-75
2022/11/01 09:06:26;;;;;;;;;;;;;;;12.96;100.00;100940.44;5023655;28;20051;-76
2022/11/01 09:08:52;;;;;;;;;;;;;;;12.97;100.00;100947.47;5004958;28;19936;-76
2022/11/01 09:11:18;;;;;;;;;;;;;;;12.96;100.00;100943.09;5005372;28;20414;-76
2022/11/01 09:13:43;;;;;;;;;;;;;;;12.96;100.00;100959.03;5006898;28;20038;-75
2022/11/01 09:16:09;;;;;;;;;;;;;;;12.96;100.00;100959.03;5004943;28;20440;-75
2022/11/01 09:18:34;;;;;;;;;;;;;;;12.95;100.00;100966.13;5004698;28;19963;-75
2022/11/01 09:21:00;;;;;;;;;;;;;;;12.95;100.00;100967.91;5004383;28;19929;-75
2022/11/01 09:23:25;;;;;;;;;;;;;;;12.95;100.00;100978.56;5004845;28;19935;-75
2022/11/01 09:25:51;;;;;;;;;;;;;;;12.98;100.00;100981.06;5023067;28;20428;-75
2022/11/01 09:28:16;;;;;;;;;;;;;;;12.97;100.00;100982.00;5004207;28;20729;-74
2022/11/01 09:30:42;;;;;;;;;;;;;;;12.97;100.00;101005.94;5012427;28;19963;-75
2022/11/01 09:33:08;;;;;;;;;;;;;;;12.98;100.00;100986.38;5019494;28;20368;-75
2022/11/01 09:35:33;;;;;;;;;;;;;;;13.04;100.00;100992.22;5003572;28;19929;-74
2022/11/01 09:38:00;;;;;;;;;;;;;;;13.06;100.00;101002.78;5011978;28;20015;-75
2022/11/01 09:40:26;;;;;;;;;;;;;;;13.11;100.00;101000.72;5012250;28;19975;-74
2022/11/01 09:42:51;;;;;;;;;;;;;;;13.17;100.00;100999.53;5003479;28;19985;-74
2022/11/01 09:45:18;;;;;;;;;;;;;;;13.20;100.00;101012.66;5022712;28;20040;-75
2022/11/01 09:47:45;;;;;;;;;;;;;;;13.16;100.00;101022.59;5012036;28;20710;-75
2022/11/01 09:50:13;;;;;;;;;;;;;;;13.16;100.00;101025.28;5027427;28;19952;-75
2022/11/01 09:52:39;;;;;;;;;;;;;;;13.20;100.00;101035.72;5043832;28;20395;-75
2022/11/01 09:55:08;;;;;;;;;;;;;;;13.23;100.00;101014.31;5058050;28;19925;-74
2022/11/01 09:57:34;;;;;;;;;;;;;;;13.23;100.00;101030.25;5027137;28;20380;-74
2022/11/01 10:00:02;;;;;;;;;;;;;;;13.23;100.00;101036.41;5057617;28;19935;-75
2022/11/01 10:02:40;;;;;;;;;;;;;;;13.27;100.00;101035.31;5043516;28;19935;-74
2022/11/01 10:05:13;;;;;;;;;;;;;;;13.29;100.00;101056.53;5042884;28;19928;-75
2022/11/01 10:07:41;;;;;;;;;;;;;;;13.23;100.00;101044.41;5043153;28;19929;-75
2022/11/01 10:10:18;;;;;;;;;;;;;;;13.20;100.00;101047.22;5043569;28;20011;-74
2022/11/01 10:12:54;;;;;;;;;;;;;;;13.17;100.00;101061.53;5033232;28;20023;-74
2022/11/01 10:15:19;;;;;;;;;;;;;;;13.15;100.00;101065.22;5027953;28;20381;-75
2022/11/01 10:17:45;;;;;;;;;;;;;;;13.14;100.00;101071.47;5043114;28;19936;-75
2022/11/01 10:20:11;;;;;;;;;;;;;;;13.12;100.00;101076.88;5023518;28;19925;-74
2022/11/01 10:22:36;;;;;;;;;;;;;;;13.12;100.00;101076.88;5027473;28;20283;-75
2022/11/01 10:25:06;;;;;;;;;;;;;;;13.14;100.00;101084.78;5009456;28;19971;-76
2022/11/01 10:27:45;;;;;;;;;;;;;;;13.18;100.00;101086.31;5042652;28;20537;-75
2022/11/01 10:30:15;;;;;;;;;;;;;;;13.22;100.00;101090.53;5021489;28;19951;-74
2022/11/01 10:32:49;;;;;;;;;;;;;;;13.22;100.00;101081.69;5056962;28;19928;-75
2022/11/01 10:35:21;;;;;;;;;;;;;;;13.24;100.00;101087.81;5029137;28;20422;-75
2022/11/01 10:37:49;;;;;;;;;;;;;;;13.22;100.00;101108.28;5027423;28;20525;-75
2022/11/01 10:40:16;;;;;;;;;;;;;;;13.22;100.00;101116.25;5042669;28;19955;-75
2022/11/01 10:42:41;;;;;;;;;;;;;;;13.21;100.00;101117.19;5028963;28;19935;-75
2022/11/01 10:45:09;;;;;;;;;;;;;;;13.22;100.00;101116.25;5041469;28;20354;-75
2022/11/01 10:47:35;;;;;;;;;;;;;;;13.23;100.00;101118.00;5042773;28;19929;-77
2022/11/01 10:50:21;;;;;;;;;;;;;;;13.24;100.00;101115.22;5020820;28;19955;-75
2022/11/01 10:52:46;;;;;;;;;;;;;;;13.27;100.00;101128.38;5022932;28;20090;-75
2022/11/01 10:55:13;;;;;;;;;;;;;;;13.27;100.00;101114.22;5022525;28;20312;-75
2022/11/01 10:57:40;;;;;;;;;;;;;;;13.26;100.00;101128.44;5023005;28;19975;-75
2022/11/01 11:00:10;;;;;;;;;;;;;;;13.27;100.00;101138.13;5022500;28;20102;-75
2022/11/01 11:02:40;;;;;;;;;;;;;;;13.27;100.00;101131.03;5027282;28;19925;-74
2022/11/01 11:05:05;;;;;;;;;;;;;;;13.27;100.00;101133.69;5026471;28;20653;-75
2022/11/01 11:07:31;;;;;;;;;;;;;;;13.29;100.00;101107.03;5022255;28;19936;-75
2022/11/01 11:09:58;;;;;;;;;;;;;;;13.31;100.00;101129.91;5022506;28;20427;-75
2022/11/01 11:12:23;;;;;;;;;;;;;;;13.35;100.00;101127.97;5013794;28;19925;-75
2022/11/01 11:14:53;;;;;;;;;;;;;;;13.40;100.00;101123.25;5025064;28;19935;-74
2022/11/01 11:17:20;;;;;;;;;;;;;;;13.46;100.00;101126.56;5021237;28;20025;-75
2022/11/01 11:19:49;;;;;;;;;;;;;;;13.53;100.00;101127.97;5021850;28;20379;-75
2022/11/01 11:22:14;;;;;;;;;;;;;;;13.52;100.00;101111.13;5024461;28;19929;-74
2022/11/01 11:24:40;;;;;;;;;;;;;;;13.48;100.00;101120.25;5021916;28;19998;-75
2022/11/01 11:27:27;;;;;;;;;;;;;;;13.48;100.00;101103.41;5026245;28;20002;-75
2022/11/01 11:29:54;;;;;;;;;;;;;;;13.47;100.00;101120.31;5037374;28;20403;-75
2022/11/01 11:32:21;;;;;;;;;;;;;;;13.50;100.00;101128.16;5022293;28;20355;-75
2022/11/01 11:34:51;;;;;;;;;;;;;;;13.54;100.00;101121.69;5024545;28;19929;-75
2022/11/01 11:37:20;;;;;;;;;;;;;;;13.53;100.00;101123.53;5020960;28;19932;-75
2022/11/01 11:40:04;;;;;;;;;;;;;;;13.59;100.00;101140.94;5021774;28;19972;-75
2022/11/01 11:42:31;;;;;;;;;;;;;;;13.65;100.00;101148.59;5021965;28;19937;-75
2022/11/01 11:45:17;;;;;;;;;;;;;;;13.70;100.00;101146.56;5022316;28;20396;-75
2022/11/01 11:47:42;;;;;;;;;;;;;;;13.71;100.00;101134.97;5038331;28;19975;-74
2022/11/01 11:50:20;;;;;;;;;;;;;;;13.70;100.00;101140.34;5029709;28;20043;-74
2022/11/01 11:52:49;;;;;;;;;;;;;;;13.71;100.00;101148.28;5042426;28;19944;-75
2022/11/01 11:55:35;;;;;;;;;;;;;;;13.71;100.00;101142.94;5026283;28;19929;-75
2022/11/01 11:58:01;;;;;;;;;;;;;;;13.73;100.00;101150.81;4998235;28;19932;-75
2022/11/01 12:00:27;;;;;;;;;;;;;;;13.78;100.00;101147.94;5022697;28;20280;-75
2022/11/01 12:02:52;;;;;;;;;;;;;;;13.85;100.00;101130.69;5041399;28;19985;-75
2022/11/01 12:05:18;;;;;;;;;;;;;;;13.88;100.00;101146.47;5042112;28;20564;-75
2022/11/01 12:07:43;;;;;;;;;;;;;;;13.92;100.00;101145.38;5022944;28;20036;-75
2022/11/01 12:10:28;;;;;;;;;;;;;;;13.93;100.00;101149.75;5031758;28;20368;-75
2022/11/01 12:12:55;;;;;;;;;;;;;;;13.91;100.00;101149.00;5041732;28;19935;-75
2022/11/01 12:15:28;;;;;;;;;;;;;;;13.90;100.00;101144.59;5042296;28;19933;-75
2022/11/01 12:17:53;;;;;;;;;;;;;;;13.87;100.00;101142.09;5041252;28;19977;-75
2022/11/01 12:20:20;;;;;;;;;;;;;;;13.88;100.00;101142.97;5026447;28;19924;-75
2022/11/01 12:22:48;;;;;;;;;;;;;;;13.86;100.00;101156.34;5042275;28;19997;-75
2022/11/01 12:25:15;;;;;;;;;;;;;;;13.85;100.00;101144.84;5011507;28;19944;-75
2022/11/01 12:27:44;;;;;;;;;;;;;;;13.88;100.00;101151.81;5026136;28;20509;-75
2022/11/01 12:30:14;;;;;;;;;;;;;;;13.88;100.00;101141.16;5028640;28;19924;-74
2022/11/01 12:32:53;;;;;;;;;;;;;;;13.92;100.00;101158.69;5044290;28;20165;-74
2022/11/01 12:35:22;;;;;;;;;;;;;;;13.98;100.00;101145.03;5024235;28;19977;-75
2022/11/01 12:37:56;;;;;;;;;;;;;;;14.04;100.00;101157.16;5061827;28;19978;-74